sensor_id;sensor_type;location;lat;lon;timestamp;temperature;humidity
9118;DHT22;4594;50.994;7.126;2023-09-07T00:00:15;21.90;37.30
9118;DHT22;4594;50.994;7.126;2023-09-07T00:02:41;22.00;37.40
9118;DHT22;4594;50.994;7.126;2023-09-07T00:05:07;22.00;37.30
9118;DHT22;4594;50.994;7.126;2023-09-07T00:07:34;22.00;37.20
9118;DHT22;4594;50.994;7.126;2023-09-07T00:10:00;22.10;37.20
9118;DHT22;4594;50.994;7.126;2023-09-07T00:12:26;22.20;37.20
9118;DHT22;4594;50.994;7.126;2023-09-07T00:14:55;22.20;37.20
9118;DHT22;4594;50.994;7.126;2023-09-07T00:17:21;22.20;37.10
9118;DHT22;4594;50.994;7.126;2023-09-07T00:19:47;22.30;37.10
9118;DHT22;4594;50.994;7.126;2023-09-07T00:22:16;22.30;37.10
9118;DHT22;4594;50.994;7.126;2023-09-07T00:24:43;22.30;37.00
9118;DHT22;4594;50.994;7.126;2023-09-07T00:27:09;22.40;37.00
9118;DHT22;4594;50.994;7.126;2023-09-07T00:29:37;22.40;37.00
9118;DHT22;4594;50.994;7.126;2023-09-07T00:32:04;22.40;36.90
9118;DHT22;4594;50.994;7.126;2023-09-07T00:34:30;22.40;36.90
9118;DHT22;4594;50.994;7.126;2023-09-07T00:36:56;22.40;36.90
9118;DHT22;4594;50.994;7.126;2023-09-07T00:39:22;22.40;36.90
9118;DHT22;4594;50.994;7.126;2023-09-07T00:41:48;22.40;36.80
9118;DHT22;4594;50.994;7.126;2023-09-07T00:44:14;22.40;36.80
9118;DHT22;4594;50.994;7.126;2023-09-07T00:46:40;22.40;36.70
9118;DHT22;4594;50.994;7.126;2023-09-07T00:49:06;22.40;36.80
9118;DHT22;4594;50.994;7.126;2023-09-07T00:51:32;22.40;36.70
9118;DHT22;4594;50.994;7.126;2023-09-07T00:53:59;22.40;36.70
9118;DHT22;4594;50.994;7.126;2023-09-07T00:56:26;22.40;36.70
9118;DHT22;4594;50.994;7.126;2023-09-07T00:58:53;22.40;36.70
9118;DHT22;4594;50.994;7.126;2023-09-07T01:01:23;22.30;36.60
9118;DHT22;4594;50.994;7.126;2023-09-07T01:03:50;22.30;36.60
9118;DHT22;4594;50.994;7.126;2023-09-07T01:06:20;22.30;36.60
9118;DHT22;4594;50.994;7.126;2023-09-07T01:08:54;22.30;36.70
9118;DHT22;4594;50.994;7.126;2023-09-07T01:11:24;22.30;36.70
9118;DHT22;4594;50.994;7.126;2023-09-07T01:13:50;22.30;36.60
9118;DHT22;4594;50.994;7.126;2023-09-07T01:16:21;22.20;36.50
9118;DHT22;4594;50.994;7.126;2023-09-07T01:18:49;22.20;36.60
9118;DHT22;4594;50.994;7.126;2023-09-07T01:21:15;22.20;36.60
9118;DHT22;4594;50.994;7.126;2023-09-07T01:23:42;22.10;36.50
9118;DHT22;4594;50.994;7.126;2023-09-07T01:26:10;22.10;36.50
9118;DHT22;4594;50.994;7.126;2023-09-07T01:28:36;22.00;36.50
9118;DHT22;4594;50.994;7.126;2023-09-07T01:31:03;22.00;36.50
9118;DHT22;4594;50.994;7.126;2023-09-07T01:33:30;22.00;36.50
9118;DHT22;4594;50.994;7.126;2023-09-07T01:35:55;21.90;36.50
9118;DHT22;4594;50.994;7.126;2023-09-07T01:38:21;22.00;36.50
9118;DHT22;4594;50.994;7.126;2023-09-07T01:40:47;21.90;36.50
9118;DHT22;4594;50.994;7.126;2023-09-07T01:43:13;21.90;36.50
9118;DHT22;4594;50.994;7.126;2023-09-07T01:45:39;21.90;36.50
9118;DHT22;4594;50.994;7.126;2023-09-07T01:48:10;21.90;36.50
9118;DHT22;4594;50.994;7.126;2023-09-07T01:50:36;21.80;36.50
9118;DHT22;4594;50.994;7.126;2023-09-07T01:53:02;21.80;36.50
9118;DHT22;4594;50.994;7.126;2023-09-07T01:55:33;21.80;36.50
9118;DHT22;4594;50.994;7.126;2023-09-07T01:57:58;21.70;36.40
9118;DHT22;4594;50.994;7.126;2023-09-07T02:00:24;21.60;36.40
9118;DHT22;4594;50.994;7.126;2023-09-07T02:02:50;21.50;36.70
9118;DHT22;4594;50.994;7.126;2023-09-07T02:05:15;21.50;36.40
9118;DHT22;4594;50.994;7.126;2023-09-07T02:07:42;21.40;36.30
9118;DHT22;4594;50.994;7.126;2023-09-07T02:10:09;21.30;36.30
9118;DHT22;4594;50.994;7.126;2023-09-07T02:12:35;21.30;36.30
9118;DHT22;4594;50.994;7.126;2023-09-07T02:15:02;21.20;36.30
9118;DHT22;4594;50.994;7.126;2023-09-07T02:17:29;21.20;36.40
9118;DHT22;4594;50.994;7.126;2023-09-07T02:19:55;21.10;36.30
9118;DHT22;4594;50.994;7.126;2023-09-07T02:22:21;21.00;36.30
9118;DHT22;4594;50.994;7.126;2023-09-07T02:24:46;21.00;36.40
9118;DHT22;4594;50.994;7.126;2023-09-07T02:27:12;20.90;36.30
9118;DHT22;4594;50.994;7.126;2023-09-07T02:29:38;20.90;36.30
9118;DHT22;4594;50.994;7.126;2023-09-07T02:32:04;20.80;36.30
9118;DHT22;4594;50.994;7.126;2023-09-07T02:34:30;20.80;36.40
9118;DHT22;4594;50.994;7.126;2023-09-07T02:36:56;20.80;36.40
9118;DHT22;4594;50.994;7.126;2023-09-07T02:39:22;20.80;36.40
9118;DHT22;4594;50.994;7.126;2023-09-07T02:41:52;20.70;36.40
9118;DHT22;4594;50.994;7.126;2023-09-07T02:44:18;20.70;36.40
9118;DHT22;4594;50.994;7.126;2023-09-07T02:46:43;20.70;36.50
9118;DHT22;4594;50.994;7.126;2023-09-07T02:49:09;20.70;36.50
9118;DHT22;4594;50.994;7.126;2023-09-07T02:51:35;20.70;36.50
9118;DHT22;4594;50.994;7.126;2023-09-07T02:54:02;20.70;36.50
9118;DHT22;4594;50.994;7.126;2023-09-07T02:56:29;20.70;36.50
9118;DHT22;4594;50.994;7.126;2023-09-07T02:58:54;20.70;36.50
9118;DHT22;4594;50.994;7.126;2023-09-07T03:01:21;20.70;36.50
9118;DHT22;4594;50.994;7.126;2023-09-07T03:03:47;20.60;36.50
9118;DHT22;4594;50.994;7.126;2023-09-07T03:06:14;20.70;36.60
9118;DHT22;4594;50.994;7.126;2023-09-07T03:08:42;20.60;36.50
9118;DHT22;4594;50.994;7.126;2023-09-07T03:11:09;20.70;36.60
9118;DHT22;4594;50.994;7.126;2023-09-07T03:13:35;20.60;36.50
9118;DHT22;4594;50.994;7.126;2023-09-07T03:16:02;20.70;36.60
9118;DHT22;4594;50.994;7.126;2023-09-07T03:18:29;20.70;36.70
9118;DHT22;4594;50.994;7.126;2023-09-07T03:21:00;20.70;36.60
9118;DHT22;4594;50.994;7.126;2023-09-07T03:23:28;20.70;36.60
9118;DHT22;4594;50.994;7.126;2023-09-07T03:25:54;20.70;36.60
9118;DHT22;4594;50.994;7.126;2023-09-07T03:28:19;20.80;36.70
9118;DHT22;4594;50.994;7.126;2023-09-07T03:30:45;20.80;36.60
9118;DHT22;4594;50.994;7.126;2023-09-07T03:33:11;20.80;36.70
9118;DHT22;4594;50.994;7.126;2023-09-07T03:35:36;20.80;36.70
9118;DHT22;4594;50.994;7.126;2023-09-07T03:38:03;20.80;36.70
9118;DHT22;4594;50.994;7.126;2023-09-07T03:40:29;20.80;36.60
9118;DHT22;4594;50.994;7.126;2023-09-07T03:42:55;20.70;36.60
9118;DHT22;4594;50.994;7.126;2023-09-07T03:45:20;20.80;36.70
9118;DHT22;4594;50.994;7.126;2023-09-07T03:47:46;20.70;36.60
9118;DHT22;4594;50.994;7.126;2023-09-07T03:50:12;20.70;36.90
9118;DHT22;4594;50.994;7.126;2023-09-07T03:52:37;20.70;36.60
9118;DHT22;4594;50.994;7.126;2023-09-07T03:55:03;20.70;36.50
9118;DHT22;4594;50.994;7.126;2023-09-07T03:57:29;20.70;36.60
9118;DHT22;4594;50.994;7.126;2023-09-07T03:59:56;20.60;36.50
9118;DHT22;4594;50.994;7.126;2023-09-07T04:02:23;20.60;36.50
9118;DHT22;4594;50.994;7.126;2023-09-07T04:04:50;20.60;36.50
9118;DHT22;4594;50.994;7.126;2023-09-07T04:07:17;20.60;36.50
9118;DHT22;4594;50.994;7.126;2023-09-07T04:09:44;20.60;36.50
9118;DHT22;4594;50.994;7.126;2023-09-07T04:12:10;20.60;36.60
9118;DHT22;4594;50.994;7.126;2023-09-07T04:14:35;20.60;36.50
9118;DHT22;4594;50.994;7.126;2023-09-07T04:17:02;20.60;36.50
9118;DHT22;4594;50.994;7.126;2023-09-07T04:19:28;20.60;36.60
9118;DHT22;4594;50.994;7.126;2023-09-07T04:21:53;20.60;36.60
9118;DHT22;4594;50.994;7.126;2023-09-07T04:24:19;20.60;36.60
9118;DHT22;4594;50.994;7.126;2023-09-07T04:26:45;20.60;36.90
9118;DHT22;4594;50.994;7.126;2023-09-07T04:29:13;20.60;36.60
9118;DHT22;4594;50.994;7.126;2023-09-07T04:31:38;20.60;36.60
9118;DHT22;4594;50.994;7.126;2023-09-07T04:34:04;20.60;36.60
9118;DHT22;4594;50.994;7.126;2023-09-07T04:36:30;20.60;36.50
9118;DHT22;4594;50.994;7.126;2023-09-07T04:38:56;20.60;36.60
9118;DHT22;4594;50.994;7.126;2023-09-07T04:41:23;20.60;36.60
9118;DHT22;4594;50.994;7.126;2023-09-07T04:43:48;20.60;36.50
9118;DHT22;4594;50.994;7.126;2023-09-07T04:46:14;20.60;36.50
9118;DHT22;4594;50.994;7.126;2023-09-07T04:48:40;20.70;36.60
9118;DHT22;4594;50.994;7.126;2023-09-07T04:51:08;20.70;36.60
9118;DHT22;4594;50.994;7.126;2023-09-07T04:53:36;20.70;36.60
9118;DHT22;4594;50.994;7.126;2023-09-07T04:56:04;20.70;36.60
9118;DHT22;4594;50.994;7.126;2023-09-07T04:58:31;20.70;36.60
9118;DHT22;4594;50.994;7.126;2023-09-07T05:01:04;20.70;36.60
9118;DHT22;4594;50.994;7.126;2023-09-07T05:03:31;20.70;36.70
9118;DHT22;4594;50.994;7.126;2023-09-07T05:05:58;20.70;36.60
9118;DHT22;4594;50.994;7.126;2023-09-07T05:08:24;20.70;36.70
9118;DHT22;4594;50.994;7.126;2023-09-07T05:11:01;20.70;36.70
9118;DHT22;4594;50.994;7.126;2023-09-07T05:13:31;20.80;36.70
9118;DHT22;4594;50.994;7.126;2023-09-07T05:15:58;20.70;36.60
9118;DHT22;4594;50.994;7.126;2023-09-07T05:18:26;20.70;36.60
9118;DHT22;4594;50.994;7.126;2023-09-07T05:20:51;20.80;36.70
9118;DHT22;4594;50.994;7.126;2023-09-07T05:23:22;20.80;36.70
9118;DHT22;4594;50.994;7.126;2023-09-07T05:25:51;20.80;36.60
9118;DHT22;4594;50.994;7.126;2023-09-07T05:28:19;20.80;36.60
9118;DHT22;4594;50.994;7.126;2023-09-07T05:30:45;20.90;36.70
9118;DHT22;4594;50.994;7.126;2023-09-07T05:33:13;20.90;36.70
9118;DHT22;4594;50.994;7.126;2023-09-07T05:35:40;20.90;36.70
9118;DHT22;4594;50.994;7.126;2023-09-07T05:38:07;20.90;36.70
9118;DHT22;4594;50.994;7.126;2023-09-07T05:40:35;21.00;36.70
9118;DHT22;4594;50.994;7.126;2023-09-07T05:43:03;21.00;36.70
9118;DHT22;4594;50.994;7.126;2023-09-07T05:45:30;21.00;36.70
9118;DHT22;4594;50.994;7.126;2023-09-07T05:47:57;21.10;36.80
9118;DHT22;4594;50.994;7.126;2023-09-07T05:50:23;21.10;36.80
9118;DHT22;4594;50.994;7.126;2023-09-07T05:52:49;21.10;36.80
9118;DHT22;4594;50.994;7.126;2023-09-07T05:55:14;21.30;36.90
9118;DHT22;4594;50.994;7.126;2023-09-07T05:57:40;21.40;37.10
9118;DHT22;4594;50.994;7.126;2023-09-07T06:00:07;21.50;37.20
9118;DHT22;4594;50.994;7.126;2023-09-07T06:02:33;21.70;37.30
9118;DHT22;4594;50.994;7.126;2023-09-07T06:04:59;21.90;37.40
9118;DHT22;4594;50.994;7.126;2023-09-07T06:07:24;22.20;37.70
9118;DHT22;4594;50.994;7.126;2023-09-07T06:09:50;22.50;37.80
9118;DHT22;4594;50.994;7.126;2023-09-07T06:12:16;22.80;37.90
9118;DHT22;4594;50.994;7.126;2023-09-07T06:14:41;23.20;37.90
9118;DHT22;4594;50.994;7.126;2023-09-07T06:17:07;23.60;38.10
9118;DHT22;4594;50.994;7.126;2023-09-07T06:19:33;24.00;38.10
9118;DHT22;4594;50.994;7.126;2023-09-07T06:21:59;24.30;38.10
9118;DHT22;4594;50.994;7.126;2023-09-07T06:24:25;24.60;38.10
9118;DHT22;4594;50.994;7.126;2023-09-07T06:26:51;25.00;38.20
9118;DHT22;4594;50.994;7.126;2023-09-07T06:29:16;25.30;38.10
9118;DHT22;4594;50.994;7.126;2023-09-07T06:31:42;25.70;38.20
9118;DHT22;4594;50.994;7.126;2023-09-07T06:34:08;26.00;38.10
9118;DHT22;4594;50.994;7.126;2023-09-07T06:36:33;26.40;38.10
9118;DHT22;4594;50.994;7.126;2023-09-07T06:38:59;26.80;38.00
9118;DHT22;4594;50.994;7.126;2023-09-07T06:41:25;27.10;37.90
9118;DHT22;4594;50.994;7.126;2023-09-07T06:43:50;27.50;37.90
9118;DHT22;4594;50.994;7.126;2023-09-07T06:46:16;27.90;37.80
9118;DHT22;4594;50.994;7.126;2023-09-07T06:48:42;28.20;37.80
9118;DHT22;4594;50.994;7.126;2023-09-07T06:51:07;28.60;37.70
9118;DHT22;4594;50.994;7.126;2023-09-07T06:53:34;29.00;37.70
9118;DHT22;4594;50.994;7.126;2023-09-07T06:56:02;29.30;37.50
9118;DHT22;4594;50.994;7.126;2023-09-07T06:58:28;29.60;37.40
9118;DHT22;4594;50.994;7.126;2023-09-07T07:01:01;29.90;37.30
9118;DHT22;4594;50.994;7.126;2023-09-07T07:03:29;30.20;37.00
9118;DHT22;4594;50.994;7.126;2023-09-07T07:05:56;30.60;37.30
9118;DHT22;4594;50.994;7.126;2023-09-07T07:08:22;30.90;37.10
9118;DHT22;4594;50.994;7.126;2023-09-07T07:10:49;31.30;37.20
9118;DHT22;4594;50.994;7.126;2023-09-07T07:13:15;31.60;37.00
9118;DHT22;4594;50.994;7.126;2023-09-07T07:15:41;32.00;36.80
9118;DHT22;4594;50.994;7.126;2023-09-07T07:18:07;32.30;36.70
9118;DHT22;4594;50.994;7.126;2023-09-07T07:20:40;32.70;36.60
9118;DHT22;4594;50.994;7.126;2023-09-07T07:23:06;33.10;36.40
9118;DHT22;4594;50.994;7.126;2023-09-07T07:25:32;33.40;36.50
9118;DHT22;4594;50.994;7.126;2023-09-07T07:28:08;33.90;36.50
9118;DHT22;4594;50.994;7.126;2023-09-07T07:30:38;34.30;35.70
9118;DHT22;4594;50.994;7.126;2023-09-07T07:33:06;34.70;35.90
9118;DHT22;4594;50.994;7.126;2023-09-07T07:35:33;35.10;35.80
9118;DHT22;4594;50.994;7.126;2023-09-07T07:38:03;35.30;35.50
9118;DHT22;4594;50.994;7.126;2023-09-07T07:40:30;35.70;35.50
9118;DHT22;4594;50.994;7.126;2023-09-07T07:42:56;36.00;35.30
9118;DHT22;4594;50.994;7.126;2023-09-07T07:45:22;36.30;35.20
9118;DHT22;4594;50.994;7.126;2023-09-07T07:47:51;36.60;35.00
9118;DHT22;4594;50.994;7.126;2023-09-07T07:50:18;37.00;34.70
9118;DHT22;4594;50.994;7.126;2023-09-07T07:52:44;37.30;35.00
9118;DHT22;4594;50.994;7.126;2023-09-07T07:55:11;37.60;34.70
9118;DHT22;4594;50.994;7.126;2023-09-07T07:57:37;37.90;34.80
9118;DHT22;4594;50.994;7.126;2023-09-07T08:00:04;38.20;34.80
9118;DHT22;4594;50.994;7.126;2023-09-07T08:02:31;38.60;34.60
9118;DHT22;4594;50.994;7.126;2023-09-07T08:04:57;38.90;34.30
9118;DHT22;4594;50.994;7.126;2023-09-07T08:07:24;39.20;33.90
9118;DHT22;4594;50.994;7.126;2023-09-07T08:09:50;39.50;33.60
9118;DHT22;4594;50.994;7.126;2023-09-07T08:12:16;39.60;33.30
9118;DHT22;4594;50.994;7.126;2023-09-07T08:14:42;39.70;33.10
9118;DHT22;4594;50.994;7.126;2023-09-07T08:17:08;39.90;33.00
9118;DHT22;4594;50.994;7.126;2023-09-07T08:19:34;39.90;32.80
9118;DHT22;4594;50.994;7.126;2023-09-07T08:22:00;40.00;32.90
9118;DHT22;4594;50.994;7.126;2023-09-07T08:24:29;40.10;32.90
9118;DHT22;4594;50.994;7.126;2023-09-07T08:26:55;40.20;32.70
9118;DHT22;4594;50.994;7.126;2023-09-07T08:29:23;40.40;32.80
9118;DHT22;4594;50.994;7.126;2023-09-07T08:31:55;40.50;32.60
9118;DHT22;4594;50.994;7.126;2023-09-07T08:34:22;40.60;32.50
9118;DHT22;4594;50.994;7.126;2023-09-07T08:36:49;40.70;32.40
9118;DHT22;4594;50.994;7.126;2023-09-07T08:39:20;40.90;32.50
9118;DHT22;4594;50.994;7.126;2023-09-07T08:41:46;41.00;32.40
9118;DHT22;4594;50.994;7.126;2023-09-07T08:44:16;41.20;32.40
9118;DHT22;4594;50.994;7.126;2023-09-07T08:46:43;41.30;32.00
9118;DHT22;4594;50.994;7.126;2023-09-07T08:49:13;41.50;32.30
9118;DHT22;4594;50.994;7.126;2023-09-07T08:51:39;41.60;31.80
9118;DHT22;4594;50.994;7.126;2023-09-07T08:54:05;41.70;31.90
9118;DHT22;4594;50.994;7.126;2023-09-07T08:56:33;41.80;31.90
9118;DHT22;4594;50.994;7.126;2023-09-07T08:58:59;41.90;31.60
9118;DHT22;4594;50.994;7.126;2023-09-07T09:01:24;41.80;31.30
9118;DHT22;4594;50.994;7.126;2023-09-07T09:03:51;41.90;31.20
9118;DHT22;4594;50.994;7.126;2023-09-07T09:06:18;41.80;31.10
9118;DHT22;4594;50.994;7.126;2023-09-07T09:08:55;41.70;31.40
9118;DHT22;4594;50.994;7.126;2023-09-07T09:11:23;41.70;31.00
9118;DHT22;4594;50.994;7.126;2023-09-07T09:13:51;41.60;31.00
9118;DHT22;4594;50.994;7.126;2023-09-07T09:16:19;41.60;30.90
9118;DHT22;4594;50.994;7.126;2023-09-07T09:18:53;41.60;31.00
9118;DHT22;4594;50.994;7.126;2023-09-07T09:21:25;41.70;31.10
9118;DHT22;4594;50.994;7.126;2023-09-07T09:23:54;41.60;30.90
9118;DHT22;4594;50.994;7.126;2023-09-07T09:26:21;41.60;30.80
9118;DHT22;4594;50.994;7.126;2023-09-07T09:28:48;41.70;30.80
9118;DHT22;4594;50.994;7.126;2023-09-07T09:31:17;41.70;30.90
9118;DHT22;4594;50.994;7.126;2023-09-07T09:33:48;41.80;30.90
9118;DHT22;4594;50.994;7.126;2023-09-07T09:36:16;41.80;30.80
9118;DHT22;4594;50.994;7.126;2023-09-07T09:38:47;41.90;30.80
9118;DHT22;4594;50.994;7.126;2023-09-07T09:41:17;41.90;30.60
9118;DHT22;4594;50.994;7.126;2023-09-07T09:43:43;42.10;30.70
9118;DHT22;4594;50.994;7.126;2023-09-07T09:46:12;42.10;30.60
9118;DHT22;4594;50.994;7.126;2023-09-07T09:48:40;42.10;30.50
9118;DHT22;4594;50.994;7.126;2023-09-07T09:51:08;42.20;30.50
9118;DHT22;4594;50.994;7.126;2023-09-07T09:53:33;42.20;30.40
9118;DHT22;4594;50.994;7.126;2023-09-07T09:56:00;42.20;30.50
9118;DHT22;4594;50.994;7.126;2023-09-07T09:58:26;42.30;30.50
9118;DHT22;4594;50.994;7.126;2023-09-07T10:00:56;42.30;30.40
9118;DHT22;4594;50.994;7.126;2023-09-07T10:03:33;42.30;30.40
9118;DHT22;4594;50.994;7.126;2023-09-07T10:06:17;42.30;30.20
9118;DHT22;4594;50.994;7.126;2023-09-07T10:11:30;42.30;30.00
9118;DHT22;4594;50.994;7.126;2023-09-07T10:13:58;42.30;30.30
9118;DHT22;4594;50.994;7.126;2023-09-07T10:16:44;42.30;30.20
9118;DHT22;4594;50.994;7.126;2023-09-07T10:19:15;42.30;30.40
9118;DHT22;4594;50.994;7.126;2023-09-07T10:21:42;42.20;30.00
9118;DHT22;4594;50.994;7.126;2023-09-07T10:24:08;42.30;30.20
9118;DHT22;4594;50.994;7.126;2023-09-07T10:26:33;42.30;30.10
9118;DHT22;4594;50.994;7.126;2023-09-07T10:29:01;42.30;30.00
9118;DHT22;4594;50.994;7.126;2023-09-07T10:31:29;42.20;30.00
9118;DHT22;4594;50.994;7.126;2023-09-07T10:34:08;42.20;30.00
9118;DHT22;4594;50.994;7.126;2023-09-07T10:36:36;42.10;30.00
9118;DHT22;4594;50.994;7.126;2023-09-07T10:39:03;42.00;30.00
9118;DHT22;4594;50.994;7.126;2023-09-07T10:41:43;41.90;30.00
9118;DHT22;4594;50.994;7.126;2023-09-07T10:44:09;41.70;29.80
9118;DHT22;4594;50.994;7.126;2023-09-07T10:46:39;41.50;29.70
9118;DHT22;4594;50.994;7.126;2023-09-07T10:49:11;41.10;29.70
9118;DHT22;4594;50.994;7.126;2023-09-07T10:51:41;40.70;29.50
9118;DHT22;4594;50.994;7.126;2023-09-07T10:54:23;40.20;29.40
9118;DHT22;4594;50.994;7.126;2023-09-07T10:56:50;39.70;29.50
9118;DHT22;4594;50.994;7.126;2023-09-07T10:59:16;39.20;29.30
9118;DHT22;4594;50.994;7.126;2023-09-07T11:01:45;38.80;29.30
9118;DHT22;4594;50.994;7.126;2023-09-07T11:04:12;38.30;29.20
9118;DHT22;4594;50.994;7.126;2023-09-07T11:06:40;37.90;29.30
9118;DHT22;4594;50.994;7.126;2023-09-07T11:09:06;37.40;29.30
9118;DHT22;4594;50.994;7.126;2023-09-07T11:11:36;37.10;29.40
9118;DHT22;4594;50.994;7.126;2023-09-07T11:14:05;36.70;29.40
9118;DHT22;4594;50.994;7.126;2023-09-07T11:16:33;36.40;29.50
9118;DHT22;4594;50.994;7.126;2023-09-07T11:19:08;36.10;29.50
9118;DHT22;4594;50.994;7.126;2023-09-07T11:21:36;35.80;29.60
9118;DHT22;4594;50.994;7.126;2023-09-07T11:24:02;35.60;29.70
9118;DHT22;4594;50.994;7.126;2023-09-07T11:26:45;35.30;29.70
9118;DHT22;4594;50.994;7.126;2023-09-07T11:29:16;35.10;29.80
9118;DHT22;4594;50.994;7.126;2023-09-07T11:31:43;34.80;29.80
9118;DHT22;4594;50.994;7.126;2023-09-07T11:34:14;34.70;29.90
9118;DHT22;4594;50.994;7.126;2023-09-07T11:36:41;34.50;30.00
9118;DHT22;4594;50.994;7.126;2023-09-07T11:39:08;34.40;30.00
9118;DHT22;4594;50.994;7.126;2023-09-07T11:41:44;34.20;30.00
9118;DHT22;4594;50.994;7.126;2023-09-07T11:44:10;34.00;30.00
9118;DHT22;4594;50.994;7.126;2023-09-07T11:46:36;33.90;30.00
9118;DHT22;4594;50.994;7.126;2023-09-07T11:49:03;33.80;30.00
9118;DHT22;4594;50.994;7.126;2023-09-07T11:51:30;33.70;30.10
9118;DHT22;4594;50.994;7.126;2023-09-07T11:53:56;33.50;30.10
9118;DHT22;4594;50.994;7.126;2023-09-07T11:56:22;33.40;30.10
9118;DHT22;4594;50.994;7.126;2023-09-07T11:58:47;33.30;30.20
9118;DHT22;4594;50.994;7.126;2023-09-07T12:01:13;33.10;30.00
9118;DHT22;4594;50.994;7.126;2023-09-07T12:03:42;33.10;30.10
9118;DHT22;4594;50.994;7.126;2023-09-07T12:06:08;32.90;30.10
9118;DHT22;4594;50.994;7.126;2023-09-07T12:08:35;32.80;30.00
9118;DHT22;4594;50.994;7.126;2023-09-07T12:11:01;32.70;30.10
9118;DHT22;4594;50.994;7.126;2023-09-07T12:13:27;32.60;30.30
9118;DHT22;4594;50.994;7.126;2023-09-07T12:15:53;32.40;30.30
9118;DHT22;4594;50.994;7.126;2023-09-07T12:18:18;32.30;30.30
9118;DHT22;4594;50.994;7.126;2023-09-07T12:20:44;32.20;30.40
9118;DHT22;4594;50.994;7.126;2023-09-07T12:23:10;32.10;30.50
9118;DHT22;4594;50.994;7.126;2023-09-07T12:25:36;32.00;30.50
9118;DHT22;4594;50.994;7.126;2023-09-07T12:28:02;32.00;30.40
9118;DHT22;4594;50.994;7.126;2023-09-07T12:30:28;31.90;30.50
9118;DHT22;4594;50.994;7.126;2023-09-07T12:32:54;31.80;30.70
9118;DHT22;4594;50.994;7.126;2023-09-07T12:35:20;31.70;30.80
9118;DHT22;4594;50.994;7.126;2023-09-07T12:37:46;31.70;30.70
9118;DHT22;4594;50.994;7.126;2023-09-07T12:40:12;31.70;30.80
9118;DHT22;4594;50.994;7.126;2023-09-07T12:42:43;31.60;30.80
9118;DHT22;4594;50.994;7.126;2023-09-07T12:45:10;31.60;30.80
9118;DHT22;4594;50.994;7.126;2023-09-07T12:47:37;31.60;30.80
9118;DHT22;4594;50.994;7.126;2023-09-07T12:50:03;31.50;30.80
9118;DHT22;4594;50.994;7.126;2023-09-07T12:52:30;31.50;30.90
9118;DHT22;4594;50.994;7.126;2023-09-07T12:54:56;31.50;30.90
9118;DHT22;4594;50.994;7.126;2023-09-07T12:57:22;31.40;30.80
9118;DHT22;4594;50.994;7.126;2023-09-07T12:59:48;31.40;30.90
9118;DHT22;4594;50.994;7.126;2023-09-07T13:02:14;31.40;30.80
9118;DHT22;4594;50.994;7.126;2023-09-07T13:04:40;31.40;30.90
9118;DHT22;4594;50.994;7.126;2023-09-07T13:07:06;31.30;30.80
9118;DHT22;4594;50.994;7.126;2023-09-07T13:09:31;31.30;30.80
9118;DHT22;4594;50.994;7.126;2023-09-07T13:11:57;31.30;30.80
9118;DHT22;4594;50.994;7.126;2023-09-07T13:14:22;31.30;30.80
9118;DHT22;4594;50.994;7.126;2023-09-07T13:16:48;31.30;30.90
9118;DHT22;4594;50.994;7.126;2023-09-07T13:19:16;31.30;31.00
9118;DHT22;4594;50.994;7.126;2023-09-07T13:21:42;31.30;31.00
9118;DHT22;4594;50.994;7.126;2023-09-07T13:24:07;31.30;31.10
9118;DHT22;4594;50.994;7.126;2023-09-07T13:26:33;31.30;31.10
9118;DHT22;4594;50.994;7.126;2023-09-07T13:28:59;31.20;31.00
9118;DHT22;4594;50.994;7.126;2023-09-07T13:31:24;31.20;30.90
9118;DHT22;4594;50.994;7.126;2023-09-07T13:33:50;31.20;31.00
9118;DHT22;4594;50.994;7.126;2023-09-07T13:36:15;31.20;31.00
9118;DHT22;4594;50.994;7.126;2023-09-07T13:38:42;31.10;31.00
9118;DHT22;4594;50.994;7.126;2023-09-07T13:41:09;31.10;30.90
9118;DHT22;4594;50.994;7.126;2023-09-07T13:43:34;31.10;30.80
9118;DHT22;4594;50.994;7.126;2023-09-07T13:46:00;31.10;30.90
9118;DHT22;4594;50.994;7.126;2023-09-07T13:48:26;31.10;30.90
9118;DHT22;4594;50.994;7.126;2023-09-07T13:50:52;31.10;30.80
9118;DHT22;4594;50.994;7.126;2023-09-07T13:53:17;31.10;30.80
9118;DHT22;4594;50.994;7.126;2023-09-07T13:55:43;31.10;30.80
9118;DHT22;4594;50.994;7.126;2023-09-07T13:58:11;31.10;30.70
9118;DHT22;4594;50.994;7.126;2023-09-07T14:00:37;31.10;30.70
9118;DHT22;4594;50.994;7.126;2023-09-07T14:03:03;31.10;30.70
9118;DHT22;4594;50.994;7.126;2023-09-07T14:05:29;31.10;30.80
9118;DHT22;4594;50.994;7.126;2023-09-07T14:07:55;31.10;30.70
9118;DHT22;4594;50.994;7.126;2023-09-07T14:10:22;31.10;30.60
9118;DHT22;4594;50.994;7.126;2023-09-07T14:12:48;31.10;30.60
9118;DHT22;4594;50.994;7.126;2023-09-07T14:15:14;31.10;30.60
9118;DHT22;4594;50.994;7.126;2023-09-07T14:17:40;31.10;30.60
9118;DHT22;4594;50.994;7.126;2023-09-07T14:20:06;31.10;30.60
9118;DHT22;4594;50.994;7.126;2023-09-07T14:22:32;31.10;30.60
9118;DHT22;4594;50.994;7.126;2023-09-07T14:24:57;31.10;30.60
9118;DHT22;4594;50.994;7.126;2023-09-07T14:27:23;31.10;30.50
9118;DHT22;4594;50.994;7.126;2023-09-07T14:29:49;31.10;30.50
9118;DHT22;4594;50.994;7.126;2023-09-07T14:32:15;31.10;30.30
9118;DHT22;4594;50.994;7.126;2023-09-07T14:34:40;31.10;30.30
9118;DHT22;4594;50.994;7.126;2023-09-07T14:37:06;31.10;30.10
9118;DHT22;4594;50.994;7.126;2023-09-07T14:39:32;31.10;30.10
9118;DHT22;4594;50.994;7.126;2023-09-07T14:41:57;31.10;30.10
9118;DHT22;4594;50.994;7.126;2023-09-07T14:44:24;31.10;30.00
9118;DHT22;4594;50.994;7.126;2023-09-07T14:46:51;31.10;30.00
9118;DHT22;4594;50.994;7.126;2023-09-07T14:49:16;31.10;30.00
9118;DHT22;4594;50.994;7.126;2023-09-07T14:51:46;31.10;30.00
9118;DHT22;4594;50.994;7.126;2023-09-07T14:54:13;31.10;30.00
9118;DHT22;4594;50.994;7.126;2023-09-07T14:56:39;31.10;30.00
9118;DHT22;4594;50.994;7.126;2023-09-07T14:59:06;31.10;30.00
9118;DHT22;4594;50.994;7.126;2023-09-07T15:01:32;31.10;30.00
9118;DHT22;4594;50.994;7.126;2023-09-07T15:03:58;31.10;30.00
9118;DHT22;4594;50.994;7.126;2023-09-07T15:06:23;31.10;29.90
9118;DHT22;4594;50.994;7.126;2023-09-07T15:08:49;31.10;29.80
9118;DHT22;4594;50.994;7.126;2023-09-07T15:11:16;31.10;29.80
9118;DHT22;4594;50.994;7.126;2023-09-07T15:13:41;31.10;29.80
9118;DHT22;4594;50.994;7.126;2023-09-07T15:16:07;31.10;29.80
9118;DHT22;4594;50.994;7.126;2023-09-07T15:18:34;31.10;29.80
9118;DHT22;4594;50.994;7.126;2023-09-07T15:21:00;31.10;29.80
9118;DHT22;4594;50.994;7.126;2023-09-07T15:23:26;31.10;29.80
9118;DHT22;4594;50.994;7.126;2023-09-07T15:25:52;31.20;29.90
9118;DHT22;4594;50.994;7.126;2023-09-07T15:28:18;31.10;29.80
9118;DHT22;4594;50.994;7.126;2023-09-07T15:30:44;31.10;29.90
9118;DHT22;4594;50.994;7.126;2023-09-07T15:33:10;31.10;29.90
9118;DHT22;4594;50.994;7.126;2023-09-07T15:35:35;31.10;30.00
9118;DHT22;4594;50.994;7.126;2023-09-07T15:38:01;31.10;30.00
9118;DHT22;4594;50.994;7.126;2023-09-07T15:40:27;31.10;30.00
9118;DHT22;4594;50.994;7.126;2023-09-07T15:42:54;31.10;30.00
9118;DHT22;4594;50.994;7.126;2023-09-07T15:45:19;31.10;30.00
9118;DHT22;4594;50.994;7.126;2023-09-07T15:47:45;31.10;30.00
9118;DHT22;4594;50.994;7.126;2023-09-07T15:50:13;31.10;30.00
9118;DHT22;4594;50.994;7.126;2023-09-07T15:52:46;31.10;30.00
9118;DHT22;4594;50.994;7.126;2023-09-07T15:55:14;31.10;30.00
9118;DHT22;4594;50.994;7.126;2023-09-07T15:57:41;31.10;30.00
9118;DHT22;4594;50.994;7.126;2023-09-07T16:00:08;31.00;30.00
9118;DHT22;4594;50.994;7.126;2023-09-07T16:02:34;31.10;30.10